sensor_id;sensor_type;location;lat;lon;timestamp;P1;durP1;ratioP1;P2;durP2;ratioP2
44116;SDS011;29781;49.480;8.512;2023-11-19T00:01:45;3.70;;;3.35;;
44116;SDS011;29781;49.480;8.512;2023-11-19T00:04:12;3.72;;;3.42;;
44116;SDS011;29781;49.480;8.512;2023-11-19T00:06:38;4.10;;;3.70;;
44116;SDS011;29781;49.480;8.512;2023-11-19T00:09:04;4.68;;;3.67;;
44116;SDS011;29781;49.480;8.512;2023-11-19T00:11:29;5.88;;;3.60;;
44116;SDS011;29781;49.480;8.512;2023-11-19T00:13:55;6.07;;;3.25;;
44116;SDS011;29781;49.480;8.512;2023-11-19T00:16:20;4.75;;;3.50;;
44116;SDS011;29781;49.480;8.512;2023-11-19T00:18:46;3.95;;;3.55;;
44116;SDS011;29781;49.480;8.512;2023-11-19T00:21:11;3.88;;;3.40;;
44116;SDS011;29781;49.480;8.512;2023-11-19T00:23:37;3.72;;;3.33;;
44116;SDS011;29781;49.480;8.512;2023-11-19T00:26:03;3.58;;;3.28;;
44116;SDS011;29781;49.480;8.512;2023-11-19T00:28:31;3.38;;;2.95;;
44116;SDS011;29781;49.480;8.512;2023-11-19T00:30:58;3.95;;;3.22;;
44116;SDS011;29781;49.480;8.512;2023-11-19T00:33:23;3.42;;;2.85;;
44116;SDS011;29781;49.480;8.512;2023-11-19T00:35:49;4.00;;;2.63;;
44116;SDS011;29781;49.480;8.512;2023-11-19T00:38:15;3.42;;;2.60;;
44116;SDS011;29781;49.480;8.512;2023-11-19T00:40:41;2.80;;;2.60;;
44116;SDS011;29781;49.480;8.512;2023-11-19T00:43:06;3.10;;;2.63;;
44116;SDS011;29781;49.480;8.512;2023-11-19T00:45:32;3.33;;;2.13;;
44116;SDS011;29781;49.480;8.512;2023-11-19T00:47:58;2.92;;;2.40;;
44116;SDS011;29781;49.480;8.512;2023-11-19T00:50:24;2.83;;;2.10;;
44116;SDS011;29781;49.480;8.512;2023-11-19T00:52:50;3.88;;;2.35;;
44116;SDS011;29781;49.480;8.512;2023-11-19T00:55:16;2.42;;;2.00;;
44116;SDS011;29781;49.480;8.512;2023-11-19T00:57:42;2.78;;;1.80;;
44116;SDS011;29781;49.480;8.512;2023-11-19T01:00:08;2.53;;;1.88;;
44116;SDS011;29781;49.480;8.512;2023-11-19T01:02:43;2.25;;;1.85;;
44116;SDS011;29781;49.480;8.512;2023-11-19T01:05:10;2.58;;;1.60;;
44116;SDS011;29781;49.480;8.512;2023-11-19T01:07:39;2.65;;;1.50;;
44116;SDS011;29781;49.480;8.512;2023-11-19T01:10:04;1.80;;;1.50;;
44116;SDS011;29781;49.480;8.512;2023-11-19T01:12:31;2.45;;;1.77;;
44116;SDS011;29781;49.480;8.512;2023-11-19T01:14:56;1.50;;;1.40;;
44116;SDS011;29781;49.480;8.512;2023-11-19T01:17:22;2.00;;;1.70;;
44116;SDS011;29781;49.480;8.512;2023-11-19T01:19:48;2.17;;;1.63;;
44116;SDS011;29781;49.480;8.512;2023-11-19T01:22:15;2.67;;;1.40;;
44116;SDS011;29781;49.480;8.512;2023-11-19T01:24:40;1.60;;;1.48;;
44116;SDS011;29781;49.480;8.512;2023-11-19T01:27:06;2.05;;;1.48;;
44116;SDS011;29781;49.480;8.512;2023-11-19T01:29:31;1.70;;;1.50;;
44116;SDS011;29781;49.480;8.512;2023-11-19T01:31:57;1.60;;;1.27;;
44116;SDS011;29781;49.480;8.512;2023-11-19T01:34:22;2.25;;;1.58;;
44116;SDS011;29781;49.480;8.512;2023-11-19T01:36:48;2.42;;;1.65;;
44116;SDS011;29781;49.480;8.512;2023-11-19T01:39:13;2.28;;;1.50;;
44116;SDS011;29781;49.480;8.512;2023-11-19T01:41:41;1.40;;;1.30;;
44116;SDS011;29781;49.480;8.512;2023-11-19T01:44:06;1.50;;;1.40;;
44116;SDS011;29781;49.480;8.512;2023-11-19T01:46:32;1.52;;;1.40;;
44116;SDS011;29781;49.480;8.512;2023-11-19T01:48:59;4.80;;;1.60;;
44116;SDS011;29781;49.480;8.512;2023-11-19T01:51:25;2.05;;;1.23;;
44116;SDS011;29781;49.480;8.512;2023-11-19T01:53:52;1.80;;;1.10;;
44116;SDS011;29781;49.480;8.512;2023-11-19T01:56:17;1.52;;;1.30;;
44116;SDS011;29781;49.480;8.512;2023-11-19T01:58:45;1.65;;;1.30;;
44116;SDS011;29781;49.480;8.512;2023-11-19T02:01:11;1.15;;;1.02;;
44116;SDS011;29781;49.480;8.512;2023-11-19T02:03:38;1.20;;;1.10;;
44116;SDS011;29781;49.480;8.512;2023-11-19T02:06:04;1.20;;;1.10;;
44116;SDS011;29781;49.480;8.512;2023-11-19T02:08:30;1.42;;;1.27;;
44116;SDS011;29781;49.480;8.512;2023-11-19T02:10:56;4.40;;;1.20;;
44116;SDS011;29781;49.480;8.512;2023-11-19T02:13:21;1.17;;;1.08;;
44116;SDS011;29781;49.480;8.512;2023-11-19T02:15:47;1.92;;;1.55;;
44116;SDS011;29781;49.480;8.512;2023-11-19T02:18:20;1.50;;;1.40;;
44116;SDS011;29781;49.480;8.512;2023-11-19T02:20:52;0.90;;;0.90;;
44116;SDS011;29781;49.480;8.512;2023-11-19T02:23:19;2.20;;;1.20;;
44116;SDS011;29781;49.480;8.512;2023-11-19T02:26:22;1.02;;;0.95;;
44116;SDS011;29781;49.480;8.512;2023-11-19T02:28:38;0.98;;;0.98;;
44116;SDS011;29781;49.480;8.512;2023-11-19T02:31:05;1.23;;;1.13;;
44116;SDS011;29781;49.480;8.512;2023-11-19T02:33:31;1.85;;;1.00;;
44116;SDS011;29781;49.480;8.512;2023-11-19T02:35:56;2.25;;;1.10;;
44116;SDS011;29781;49.480;8.512;2023-11-19T02:38:22;0.70;;;0.70;;
44116;SDS011;29781;49.480;8.512;2023-11-19T02:40:47;1.10;;;1.00;;
44116;SDS011;29781;49.480;8.512;2023-11-19T02:43:14;1.35;;;1.00;;
44116;SDS011;29781;49.480;8.512;2023-11-19T02:45:40;0.70;;;0.70;;
44116;SDS011;29781;49.480;8.512;2023-11-19T02:48:05;2.58;;;0.90;;
44116;SDS011;29781;49.480;8.512;2023-11-19T02:50:31;1.35;;;0.88;;
44116;SDS011;29781;49.480;8.512;2023-11-19T02:52:57;1.52;;;0.95;;
44116;SDS011;29781;49.480;8.512;2023-11-19T02:55:22;0.85;;;0.85;;
44116;SDS011;29781;49.480;8.512;2023-11-19T02:57:49;0.90;;;0.90;;
44116;SDS011;29781;49.480;8.512;2023-11-19T03:00:15;0.88;;;0.88;;
44116;SDS011;29781;49.480;8.512;2023-11-19T03:02:49;1.10;;;1.00;;
44116;SDS011;29781;49.480;8.512;2023-11-19T03:05:23;2.33;;;1.13;;
44116;SDS011;29781;49.480;8.512;2023-11-19T03:07:50;1.25;;;1.15;;
44116;SDS011;29781;49.480;8.512;2023-11-19T03:10:15;1.10;;;1.00;;
44116;SDS011;29781;49.480;8.512;2023-11-19T03:12:41;1.10;;;1.00;;
44116;SDS011;29781;49.480;8.512;2023-11-19T03:15:08;1.08;;;1.00;;
44116;SDS011;29781;49.480;8.512;2023-11-19T03:17:39;4.25;;;1.05;;
44116;SDS011;29781;49.480;8.512;2023-11-19T03:20:06;1.10;;;1.00;;
44116;SDS011;29781;49.480;8.512;2023-11-19T03:22:39;1.00;;;1.00;;
44116;SDS011;29781;49.480;8.512;2023-11-19T03:25:06;1.20;;;1.08;;
44116;SDS011;29781;49.480;8.512;2023-11-19T03:27:33;0.75;;;0.75;;
44116;SDS011;29781;49.480;8.512;2023-11-19T03:30:03;1.40;;;1.30;;
44116;SDS011;29781;49.480;8.512;2023-11-19T03:32:30;1.00;;;1.00;;
44116;SDS011;29781;49.480;8.512;2023-11-19T03:34:57;1.20;;;1.10;;
44116;SDS011;29781;49.480;8.512;2023-11-19T03:37:24;1.00;;;0.90;;
44116;SDS011;29781;49.480;8.512;2023-11-19T03:39:51;2.80;;;0.90;;
44116;SDS011;29781;49.480;8.512;2023-11-19T03:42:18;1.10;;;0.90;;
44116;SDS011;29781;49.480;8.512;2023-11-19T03:44:44;1.52;;;1.10;;
44116;SDS011;29781;49.480;8.512;2023-11-19T03:47:09;1.08;;;0.98;;
44116;SDS011;29781;49.480;8.512;2023-11-19T03:49:35;1.55;;;1.10;;
44116;SDS011;29781;49.480;8.512;2023-11-19T03:52:01;1.35;;;1.10;;
44116;SDS011;29781;49.480;8.512;2023-11-19T03:54:26;1.65;;;1.30;;
44116;SDS011;29781;49.480;8.512;2023-11-19T03:56:52;1.33;;;1.23;;
44116;SDS011;29781;49.480;8.512;2023-11-19T03:59:18;2.08;;;1.40;;
44116;SDS011;29781;49.480;8.512;2023-11-19T04:01:45;1.42;;;1.33;;
44116;SDS011;29781;49.480;8.512;2023-11-19T04:04:11;1.42;;;1.33;;
44116;SDS011;29781;49.480;8.512;2023-11-19T04:06:37;2.03;;;1.55;;
44116;SDS011;29781;49.480;8.512;2023-11-19T04:09:02;1.95;;;1.35;;
44116;SDS011;29781;49.480;8.512;2023-11-19T04:11:28;1.42;;;1.33;;
44116;SDS011;29781;49.480;8.512;2023-11-19T04:13:54;2.60;;;1.52;;
44116;SDS011;29781;49.480;8.512;2023-11-19T04:16:19;1.45;;;1.35;;
44116;SDS011;29781;49.480;8.512;2023-11-19T04:18:51;1.40;;;1.30;;
44116;SDS011;29781;49.480;8.512;2023-11-19T04:21:16;2.03;;;1.60;;
44116;SDS011;29781;49.480;8.512;2023-11-19T04:23:42;2.22;;;1.60;;
44116;SDS011;29781;49.480;8.512;2023-11-19T04:26:07;1.50;;;1.40;;
44116;SDS011;29781;49.480;8.512;2023-11-19T04:28:33;2.17;;;1.33;;
44116;SDS011;29781;49.480;8.512;2023-11-19T04:30:58;1.48;;;1.33;;
44116;SDS011;29781;49.480;8.512;2023-11-19T04:33:24;1.70;;;1.50;;
44116;SDS011;29781;49.480;8.512;2023-11-19T04:35:50;2.30;;;1.40;;
44116;SDS011;29781;49.480;8.512;2023-11-19T04:38:15;1.20;;;1.10;;
44116;SDS011;29781;49.480;8.512;2023-11-19T04:40:41;1.30;;;1.20;;
44116;SDS011;29781;49.480;8.512;2023-11-19T04:43:06;1.42;;;1.33;;
44116;SDS011;29781;49.480;8.512;2023-11-19T04:45:32;1.63;;;1.20;;
44116;SDS011;29781;49.480;8.512;2023-11-19T04:47:58;1.20;;;1.10;;
44116;SDS011;29781;49.480;8.512;2023-11-19T04:50:23;1.38;;;1.27;;
44116;SDS011;29781;49.480;8.512;2023-11-19T04:52:52;1.90;;;1.20;;
44116;SDS011;29781;49.480;8.512;2023-11-19T04:55:18;1.30;;;1.02;;
44116;SDS011;29781;49.480;8.512;2023-11-19T04:57:44;3.63;;;1.30;;
44116;SDS011;29781;49.480;8.512;2023-11-19T05:00:10;1.20;;;1.10;;
44116;SDS011;29781;49.480;8.512;2023-11-19T05:02:36;2.17;;;1.50;;
44116;SDS011;29781;49.480;8.512;2023-11-19T05:05:02;1.65;;;1.55;;
44116;SDS011;29781;49.480;8.512;2023-11-19T05:07:29;1.38;;;1.27;;
44116;SDS011;29781;49.480;8.512;2023-11-19T05:09:55;2.40;;;1.20;;
44116;SDS011;29781;49.480;8.512;2023-11-19T05:12:20;1.52;;;1.20;;
44116;SDS011;29781;49.480;8.512;2023-11-19T05:14:47;2.58;;;1.23;;
44116;SDS011;29781;49.480;8.512;2023-11-19T05:17:15;1.30;;;1.20;;
44116;SDS011;29781;49.480;8.512;2023-11-19T05:19:44;1.65;;;1.55;;
44116;SDS011;29781;49.480;8.512;2023-11-19T05:22:10;1.45;;;1.23;;
44116;SDS011;29781;49.480;8.512;2023-11-19T05:24:35;1.35;;;1.23;;
44116;SDS011;29781;49.480;8.512;2023-11-19T05:27:01;1.80;;;1.05;;
44116;SDS011;29781;49.480;8.512;2023-11-19T05:29:27;1.63;;;1.33;;
44116;SDS011;29781;49.480;8.512;2023-11-19T05:31:53;2.25;;;1.77;;
44116;SDS011;29781;49.480;8.512;2023-11-19T05:34:20;3.08;;;1.95;;
44116;SDS011;29781;49.480;8.512;2023-11-19T05:36:46;2.10;;;1.60;;
44116;SDS011;29781;49.480;8.512;2023-11-19T05:39:11;1.85;;;1.75;;
44116;SDS011;29781;49.480;8.512;2023-11-19T05:41:37;2.80;;;1.80;;
44116;SDS011;29781;49.480;8.512;2023-11-19T05:44:02;2.20;;;2.00;;
44116;SDS011;29781;49.480;8.512;2023-11-19T05:46:28;1.83;;;1.65;;
44116;SDS011;29781;49.480;8.512;2023-11-19T05:48:53;2.00;;;1.90;;
44116;SDS011;29781;49.480;8.512;2023-11-19T05:51:19;5.93;;;2.30;;
44116;SDS011;29781;49.480;8.512;2023-11-19T05:53:45;3.65;;;2.10;;
44116;SDS011;29781;49.480;8.512;2023-11-19T05:56:10;2.45;;;1.92;;
44116;SDS011;29781;49.480;8.512;2023-11-19T05:58:36;1.88;;;1.77;;
44116;SDS011;29781;49.480;8.512;2023-11-19T06:01:04;3.00;;;1.48;;
44116;SDS011;29781;49.480;8.512;2023-11-19T06:03:32;3.15;;;2.15;;
44116;SDS011;29781;49.480;8.512;2023-11-19T06:05:58;2.10;;;1.60;;
44116;SDS011;29781;49.480;8.512;2023-11-19T06:08:23;2.10;;;1.88;;
44116;SDS011;29781;49.480;8.512;2023-11-19T06:10:49;2.08;;;1.65;;
44116;SDS011;29781;49.480;8.512;2023-11-19T06:13:16;2.35;;;1.42;;
44116;SDS011;29781;49.480;8.512;2023-11-19T06:15:42;1.83;;;1.48;;
44116;SDS011;29781;49.480;8.512;2023-11-19T06:18:08;3.10;;;1.73;;
44116;SDS011;29781;49.480;8.512;2023-11-19T06:20:33;3.28;;;1.80;;
44116;SDS011;29781;49.480;8.512;2023-11-19T06:22:59;3.63;;;1.67;;
44116;SDS011;29781;49.480;8.512;2023-11-19T06:25:25;2.15;;;1.65;;
44116;SDS011;29781;49.480;8.512;2023-11-19T06:27:51;1.92;;;1.77;;
44116;SDS011;29781;49.480;8.512;2023-11-19T06:30:17;2.22;;;1.80;;
44116;SDS011;29781;49.480;8.512;2023-11-19T06:32:44;2.63;;;1.70;;
44116;SDS011;29781;49.480;8.512;2023-11-19T06:35:09;1.92;;;1.45;;
44116;SDS011;29781;49.480;8.512;2023-11-19T06:37:35;3.97;;;1.98;;
44116;SDS011;29781;49.480;8.512;2023-11-19T06:40:03;3.40;;;1.67;;
44116;SDS011;29781;49.480;8.512;2023-11-19T06:42:30;4.07;;;1.80;;
44116;SDS011;29781;49.480;8.512;2023-11-19T06:44:56;3.33;;;1.45;;
44116;SDS011;29781;49.480;8.512;2023-11-19T06:47:22;2.30;;;1.48;;
44116;SDS011;29781;49.480;8.512;2023-11-19T06:49:50;2.47;;;1.40;;
44116;SDS011;29781;49.480;8.512;2023-11-19T06:52:16;1.95;;;1.33;;
44116;SDS011;29781;49.480;8.512;2023-11-19T06:54:41;2.88;;;1.50;;
44116;SDS011;29781;49.480;8.512;2023-11-19T06:57:07;1.17;;;1.05;;
44116;SDS011;29781;49.480;8.512;2023-11-19T06:59:34;2.60;;;1.20;;
44116;SDS011;29781;49.480;8.512;2023-11-19T07:01:59;2.55;;;1.30;;
44116;SDS011;29781;49.480;8.512;2023-11-19T07:04:25;2.67;;;1.30;;
44116;SDS011;29781;49.480;8.512;2023-11-19T07:06:50;2.88;;;1.30;;
44116;SDS011;29781;49.480;8.512;2023-11-19T07:09:18;2.30;;;1.30;;
44116;SDS011;29781;49.480;8.512;2023-11-19T07:11:44;3.50;;;1.50;;
44116;SDS011;29781;49.480;8.512;2023-11-19T07:14:10;3.45;;;1.10;;
44116;SDS011;29781;49.480;8.512;2023-11-19T07:16:36;1.20;;;1.10;;
44116;SDS011;29781;49.480;8.512;2023-11-19T07:19:03;1.73;;;1.27;;
44116;SDS011;29781;49.480;8.512;2023-11-19T07:21:30;1.85;;;1.10;;
44116;SDS011;29781;49.480;8.512;2023-11-19T07:23:55;3.42;;;1.10;;
44116;SDS011;29781;49.480;8.512;2023-11-19T07:26:21;1.75;;;1.45;;
44116;SDS011;29781;49.480;8.512;2023-11-19T07:28:48;1.20;;;1.10;;
44116;SDS011;29781;49.480;8.512;2023-11-19T07:31:14;3.05;;;1.45;;
44116;SDS011;29781;49.480;8.512;2023-11-19T07:33:40;2.65;;;1.30;;
44116;SDS011;29781;49.480;8.512;2023-11-19T07:36:09;1.52;;;0.90;;
44116;SDS011;29781;49.480;8.512;2023-11-19T07:38:35;2.97;;;1.67;;
44116;SDS011;29781;49.480;8.512;2023-11-19T07:41:00;2.72;;;1.40;;
44116;SDS011;29781;49.480;8.512;2023-11-19T07:43:26;2.25;;;1.40;;
44116;SDS011;29781;49.480;8.512;2023-11-19T07:45:51;3.15;;;1.60;;
44116;SDS011;29781;49.480;8.512;2023-11-19T07:48:17;4.63;;;1.75;;
44116;SDS011;29781;49.480;8.512;2023-11-19T07:50:47;6.78;;;1.30;;
44116;SDS011;29781;49.480;8.512;2023-11-19T07:53:15;1.65;;;1.25;;
44116;SDS011;29781;49.480;8.512;2023-11-19T07:55:44;4.50;;;1.30;;
44116;SDS011;29781;49.480;8.512;2023-11-19T07:58:12;0.80;;;0.80;;
44116;SDS011;29781;49.480;8.512;2023-11-19T08:00:38;1.33;;;0.90;;
44116;SDS011;29781;49.480;8.512;2023-11-19T08:03:04;1.17;;;0.90;;
44116;SDS011;29781;49.480;8.512;2023-11-19T08:05:30;3.67;;;0.90;;
44116;SDS011;29781;49.480;8.512;2023-11-19T08:07:56;0.95;;;0.70;;
44116;SDS011;29781;49.480;8.512;2023-11-19T08:10:23;1.95;;;0.95;;
44116;SDS011;29781;49.480;8.512;2023-11-19T08:12:48;4.75;;;1.02;;
44116;SDS011;29781;49.480;8.512;2023-11-19T08:15:14;1.23;;;1.05;;
44116;SDS011;29781;49.480;8.512;2023-11-19T08:17:40;2.08;;;1.20;;
44116;SDS011;29781;49.480;8.512;2023-11-19T08:20:07;1.50;;;1.20;;
44116;SDS011;29781;49.480;8.512;2023-11-19T08:22:35;1.45;;;1.10;;
44116;SDS011;29781;49.480;8.512;2023-11-19T08:25:01;3.60;;;0.98;;
44116;SDS011;29781;49.480;8.512;2023-11-19T08:27:27;3.35;;;1.42;;
44116;SDS011;29781;49.480;8.512;2023-11-19T08:29:53;2.55;;;1.05;;
44116;SDS011;29781;49.480;8.512;2023-11-19T08:32:25;1.60;;;1.27;;
44116;SDS011;29781;49.480;8.512;2023-11-19T08:34:51;1.33;;;1.17;;
44116;SDS011;29781;49.480;8.512;2023-11-19T08:37:17;1.52;;;1.10;;
44116;SDS011;29781;49.480;8.512;2023-11-19T08:39:48;4.25;;;1.13;;
44116;SDS011;29781;49.480;8.512;2023-11-19T08:42:14;2.40;;;1.45;;
44116;SDS011;29781;49.480;8.512;2023-11-19T08:44:40;1.85;;;1.17;;
44116;SDS011;29781;49.480;8.512;2023-11-19T08:47:08;0.95;;;0.95;;
44116;SDS011;29781;49.480;8.512;2023-11-19T08:49:34;1.75;;;1.25;;
44116;SDS011;29781;49.480;8.512;2023-11-19T08:52:00;2.10;;;1.10;;
44116;SDS011;29781;49.480;8.512;2023-11-19T08:54:25;2.20;;;1.05;;
44116;SDS011;29781;49.480;8.512;2023-11-19T08:56:51;2.88;;;1.45;;
44116;SDS011;29781;49.480;8.512;2023-11-19T08:59:16;2.40;;;1.63;;
44116;SDS011;29781;49.480;8.512;2023-11-19T09:01:42;3.28;;;1.90;;
44116;SDS011;29781;49.480;8.512;2023-11-19T09:04:08;4.90;;;2.00;;
44116;SDS011;29781;49.480;8.512;2023-11-19T09:06:34;3.15;;;1.92;;
44116;SDS011;29781;49.480;8.512;2023-11-19T09:09:01;4.50;;;2.20;;
44116;SDS011;29781;49.480;8.512;2023-11-19T09:11:28;4.43;;;2.03;;
44116;SDS011;29781;49.480;8.512;2023-11-19T09:13:54;3.53;;;1.25;;
44116;SDS011;29781;49.480;8.512;2023-11-19T09:16:19;8.38;;;3.05;;
44116;SDS011;29781;49.480;8.512;2023-11-19T09:18:45;6.07;;;2.38;;
44116;SDS011;29781;49.480;8.512;2023-11-19T09:21:11;3.13;;;1.35;;
44116;SDS011;29781;49.480;8.512;2023-11-19T09:23:37;2.15;;;1.20;;
44116;SDS011;29781;49.480;8.512;2023-11-19T09:26:04;2.22;;;1.10;;
44116;SDS011;29781;49.480;8.512;2023-11-19T09:28:31;4.10;;;2.25;;
44116;SDS011;29781;49.480;8.512;2023-11-19T09:30:56;4.30;;;1.60;;
44116;SDS011;29781;49.480;8.512;2023-11-19T09:33:22;7.78;;;3.78;;
44116;SDS011;29781;49.480;8.512;2023-11-19T09:35:48;3.95;;;1.83;;
44116;SDS011;29781;49.480;8.512;2023-11-19T09:38:14;4.18;;;1.75;;
44116;SDS011;29781;49.480;8.512;2023-11-19T09:40:40;2.92;;;1.10;;
44116;SDS011;29781;49.480;8.512;2023-11-19T09:43:06;3.03;;;2.00;;
44116;SDS011;29781;49.480;8.512;2023-11-19T09:45:32;2.83;;;1.58;;
44116;SDS011;29781;49.480;8.512;2023-11-19T09:48:17;15.82;;;5.38;;
44116;SDS011;29781;49.480;8.512;2023-11-19T09:50:44;5.45;;;2.20;;
44116;SDS011;29781;49.480;8.512;2023-11-19T09:53:13;5.53;;;1.20;;
44116;SDS011;29781;49.480;8.512;2023-11-19T09:55:40;8.18;;;1.27;;
44116;SDS011;29781;49.480;8.512;2023-11-19T09:58:06;2.75;;;1.00;;
44116;SDS011;29781;49.480;8.512;2023-11-19T10:00:33;1.75;;;0.90;;
44116;SDS011;29781;49.480;8.512;2023-11-19T10:02:59;3.13;;;0.90;;
44116;SDS011;29781;49.480;8.512;2023-11-19T10:05:25;4.50;;;1.42;;
44116;SDS011;29781;49.480;8.512;2023-11-19T10:07:51;1.35;;;0.93;;
44116;SDS011;29781;49.480;8.512;2023-11-19T10:10:17;4.03;;;1.10;;
44116;SDS011;29781;49.480;8.512;2023-11-19T10:12:45;2.38;;;0.88;;
44116;SDS011;29781;49.480;8.512;2023-11-19T10:15:19;3.03;;;1.40;;
44116;SDS011;29781;49.480;8.512;2023-11-19T10:17:47;3.17;;;0.90;;
44116;SDS011;29781;49.480;8.512;2023-11-19T10:20:13;3.13;;;1.60;;
44116;SDS011;29781;49.480;8.512;2023-11-19T10:22:39;4.53;;;1.42;;
44116;SDS011;29781;49.480;8.512;2023-11-19T10:27:50;2.58;;;1.55;;
44116;SDS011;29781;49.480;8.512;2023-11-19T10:30:20;3.50;;;1.75;;
44116;SDS011;29781;49.480;8.512;2023-11-19T10:33:02;4.65;;;1.50;;
44116;SDS011;29781;49.480;8.512;2023-11-19T10:35:28;5.60;;;1.58;;
44116;SDS011;29781;49.480;8.512;2023-11-19T10:37:54;3.20;;;1.30;;
44116;SDS011;29781;49.480;8.512;2023-11-19T10:40:19;5.82;;;2.85;;
44116;SDS011;29781;49.480;8.512;2023-11-19T10:42:45;10.23;;;4.93;;
44116;SDS011;29781;49.480;8.512;2023-11-19T10:45:21;5.30;;;2.40;;
44116;SDS011;29781;49.480;8.512;2023-11-19T10:47:48;6.88;;;2.50;;
44116;SDS011;29781;49.480;8.512;2023-11-19T10:50:17;7.30;;;2.35;;
44116;SDS011;29781;49.480;8.512;2023-11-19T10:52:43;3.88;;;2.40;;
44116;SDS011;29781;49.480;8.512;2023-11-19T10:55:11;5.22;;;1.70;;
44116;SDS011;29781;49.480;8.512;2023-11-19T10:57:40;5.00;;;2.00;;
44116;SDS011;29781;49.480;8.512;2023-11-19T11:00:11;8.15;;;4.50;;
44116;SDS011;29781;49.480;8.512;2023-11-19T11:02:41;6.80;;;2.00;;
44116;SDS011;29781;49.480;8.512;2023-11-19T11:05:13;2.78;;;1.20;;
44116;SDS011;29781;49.480;8.512;2023-11-19T11:07:39;1.40;;;0.90;;
44116;SDS011;29781;49.480;8.512;2023-11-19T11:10:07;1.98;;;0.90;;
44116;SDS011;29781;49.480;8.512;2023-11-19T11:12:37;5.35;;;1.15;;
44116;SDS011;29781;49.480;8.512;2023-11-19T11:15:04;1.25;;;0.98;;
44116;SDS011;29781;49.480;8.512;2023-11-19T11:17:31;2.90;;;1.75;;
44116;SDS011;29781;49.480;8.512;2023-11-19T11:19:59;2.67;;;0.98;;
44116;SDS011;29781;49.480;8.512;2023-11-19T11:22:24;2.13;;;1.50;;
44116;SDS011;29781;49.480;8.512;2023-11-19T11:33:06;1.55;;;1.00;;
44116;SDS011;29781;49.480;8.512;2023-11-19T11:38:10;1.83;;;1.40;;
44116;SDS011;29781;49.480;8.512;2023-11-19T11:40:38;3.33;;;1.27;;
44116;SDS011;29781;49.480;8.512;2023-11-19T11:43:08;1.52;;;0.98;;
44116;SDS011;29781;49.480;8.512;2023-11-19T11:46:28;3.60;;;1.52;;
44116;SDS011;29781;49.480;8.512;2023-11-19T11:49:16;3.13;;;1.35;;
44116;SDS011;29781;49.480;8.512;2023-11-19T11:51:58;8.35;;;3.13;;
44116;SDS011;29781;49.480;8.512;2023-11-19T11:54:28;6.70;;;5.35;;
44116;SDS011;29781;49.480;8.512;2023-11-19T11:59:31;9.07;;;3.25;;
44116;SDS011;29781;49.480;8.512;2023-11-19T12:02:08;1.77;;;1.42;;
44116;SDS011;29781;49.480;8.512;2023-11-19T12:04:35;1.90;;;1.40;;
44116;SDS011;29781;49.480;8.512;2023-11-19T12:09:33;3.67;;;1.95;;
44116;SDS011;29781;49.480;8.512;2023-11-19T12:12:11;4.13;;;2.90;;
44116;SDS011;29781;49.480;8.512;2023-11-19T12:14:59;4.20;;;2.03;;
44116;SDS011;29781;49.480;8.512;2023-11-19T12:19:59;5.57;;;2.58;;
44116;SDS011;29781;49.480;8.512;2023-11-19T12:22:30;4.25;;;3.05;;
44116;SDS011;29781;49.480;8.512;2023-11-19T12:24:56;4.68;;;3.65;;
44116;SDS011;29781;49.480;8.512;2023-11-19T12:27:21;4.65;;;2.72;;
44116;SDS011;29781;49.480;8.512;2023-11-19T12:29:53;3.90;;;2.50;;
44116;SDS011;29781;49.480;8.512;2023-11-19T12:32:19;2.85;;;2.50;;
44116;SDS011;29781;49.480;8.512;2023-11-19T12:34:44;5.03;;;1.50;;
44116;SDS011;29781;49.480;8.512;2023-11-19T12:37:10;11.65;;;1.58;;
44116;SDS011;29781;49.480;8.512;2023-11-19T12:39:35;4.57;;;1.27;;
44116;SDS011;29781;49.480;8.512;2023-11-19T12:42:01;3.95;;;0.90;;
44116;SDS011;29781;49.480;8.512;2023-11-19T12:44:27;3.58;;;1.20;;
44116;SDS011;29781;49.480;8.512;2023-11-19T12:46:59;1.95;;;0.90;;
44116;SDS011;29781;49.480;8.512;2023-11-19T12:49:34;7.03;;;1.13;;
44116;SDS011;29781;49.480;8.512;2023-11-19T12:52:00;4.38;;;1.30;;
44116;SDS011;29781;49.480;8.512;2023-11-19T12:54:33;4.93;;;1.17;;
44116;SDS011;29781;49.480;8.512;2023-11-19T12:56:59;4.28;;;2.15;;
44116;SDS011;29781;49.480;8.512;2023-11-19T12:59:25;2.67;;;1.33;;
44116;SDS011;29781;49.480;8.512;2023-11-19T13:01:55;3.67;;;1.27;;
44116;SDS011;29781;49.480;8.512;2023-11-19T13:04:28;4.20;;;0.95;;
44116;SDS011;29781;49.480;8.512;2023-11-19T13:07:00;2.80;;;1.13;;
44116;SDS011;29781;49.480;8.512;2023-11-19T13:09:28;3.80;;;1.02;;
44116;SDS011;29781;49.480;8.512;2023-11-19T13:11:55;3.90;;;0.90;;
44116;SDS011;29781;49.480;8.512;2023-11-19T13:14:21;4.03;;;3.28;;
44116;SDS011;29781;49.480;8.512;2023-11-19T13:16:48;3.28;;;1.08;;
44116;SDS011;29781;49.480;8.512;2023-11-19T13:19:14;1.80;;;0.88;;
44116;SDS011;29781;49.480;8.512;2023-11-19T13:21:44;3.00;;;0.80;;
44116;SDS011;29781;49.480;8.512;2023-11-19T13:24:12;6.30;;;1.00;;
44116;SDS011;29781;49.480;8.512;2023-11-19T13:26:38;3.70;;;1.02;;
44116;SDS011;29781;49.480;8.512;2023-11-19T13:29:03;6.22;;;1.10;;
44116;SDS011;29781;49.480;8.512;2023-11-19T13:31:29;3.20;;;0.90;;
44116;SDS011;29781;49.480;8.512;2023-11-19T13:33:55;3.72;;;1.17;;
44116;SDS011;29781;49.480;8.512;2023-11-19T13:36:21;2.00;;;1.00;;
44116;SDS011;29781;49.480;8.512;2023-11-19T13:38:47;3.10;;;1.00;;
44116;SDS011;29781;49.480;8.512;2023-11-19T13:41:12;4.97;;;1.13;;
44116;SDS011;29781;49.480;8.512;2023-11-19T13:43:38;9.82;;;1.15;;
44116;SDS011;29781;49.480;8.512;2023-11-19T13:46:04;4.20;;;0.90;;
44116;SDS011;29781;49.480;8.512;2023-11-19T13:48:30;4.00;;;0.70;;
44116;SDS011;29781;49.480;8.512;2023-11-19T13:50:56;3.03;;;0.95;;
44116;SDS011;29781;49.480;8.512;2023-11-19T13:53:22;3.92;;;1.35;;
44116;SDS011;29781;49.480;8.512;2023-11-19T13:55:48;3.60;;;1.10;;
44116;SDS011;29781;49.480;8.512;2023-11-19T13:58:14;3.90;;;0.70;;
44116;SDS011;29781;49.480;8.512;2023-11-19T14:00:40;5.50;;;0.90;;
44116;SDS011;29781;49.480;8.512;2023-11-19T14:03:07;3.55;;;1.00;;
44116;SDS011;29781;49.480;8.512;2023-11-19T14:05:33;2.92;;;0.80;;
44116;SDS011;29781;49.480;8.512;2023-11-19T14:07:58;2.30;;;0.75;;
44116;SDS011;29781;49.480;8.512;2023-11-19T14:10:24;4.32;;;1.23;;
44116;SDS011;29781;49.480;8.512;2023-11-19T14:12:49;7.50;;;1.77;;
44116;SDS011;29781;49.480;8.512;2023-11-19T14:15:15;6.03;;;1.00;;
44116;SDS011;29781;49.480;8.512;2023-11-19T14:17:44;3.83;;;0.80;;
44116;SDS011;29781;49.480;8.512;2023-11-19T14:20:10;3.13;;;1.10;;
44116;SDS011;29781;49.480;8.512;2023-11-19T14:22:40;3.63;;;1.00;;
44116;SDS011;29781;49.480;8.512;2023-11-19T14:25:06;3.67;;;0.82;;
44116;SDS011;29781;49.480;8.512;2023-11-19T14:27:38;2.70;;;0.60;;
44116;SDS011;29781;49.480;8.512;2023-11-19T14:30:06;3.05;;;1.08;;
44116;SDS011;29781;49.480;8.512;2023-11-19T14:32:33;2.92;;;0.80;;
44116;SDS011;29781;49.480;8.512;2023-11-19T14:35:00;3.97;;;0.80;;
44116;SDS011;29781;49.480;8.512;2023-11-19T14:37:25;5.13;;;1.27;;
44116;SDS011;29781;49.480;8.512;2023-11-19T14:39:51;6.10;;;1.25;;
44116;SDS011;29781;49.480;8.512;2023-11-19T14:42:16;2.75;;;0.70;;
44116;SDS011;29781;49.480;8.512;2023-11-19T14:44:42;3.20;;;0.98;;
44116;SDS011;29781;49.480;8.512;2023-11-19T14:47:08;5.72;;;1.00;;
44116;SDS011;29781;49.480;8.512;2023-11-19T14:49:36;4.40;;;0.98;;
44116;SDS011;29781;49.480;8.512;2023-11-19T14:52:03;2.15;;;0.90;;
44116;SDS011;29781;49.480;8.512;2023-11-19T14:54:29;4.13;;;1.10;;
44116;SDS011;29781;49.480;8.512;2023-11-19T14:56:56;4.97;;;1.20;;
44116;SDS011;29781;49.480;8.512;2023-11-19T14:59:21;4.93;;;1.17;;
44116;SDS011;29781;49.480;8.512;2023-11-19T15:01:47;7.72;;;1.38;;
44116;SDS011;29781;49.480;8.512;2023-11-19T15:04:12;5.38;;;0.85;;
44116;SDS011;29781;49.480;8.512;2023-11-19T15:06:38;8.00;;;1.48;;
44116;SDS011;29781;49.480;8.512;2023-11-19T15:09:04;7.88;;;1.02;;